sensor_id;sensor_type;location;lat;lon;timestamp;P1;durP1;ratioP1;P2;durP2;ratioP2
57893;SDS011;43710;47.460;19.034;2023-03-24T05:05:27;24.48;;;18.23;;
57893;SDS011;43710;47.460;19.034;2023-03-24T05:08:30;39.00;;;18.65;;
57893;SDS011;43710;47.460;19.034;2023-03-24T05:11:32;27.55;;;18.45;;
57893;SDS011;43710;47.460;19.034;2023-03-24T05:14:35;26.92;;;18.05;;
57893;SDS011;43710;47.460;19.034;2023-03-24T05:17:38;29.05;;;19.48;;
57893;SDS011;43710;47.460;19.034;2023-03-24T05:20:41;27.15;;;17.92;;
57893;SDS011;43710;47.460;19.034;2023-03-24T05:23:44;27.50;;;18.00;;
57893;SDS011;43710;47.460;19.034;2023-03-24T05:26:46;23.30;;;17.05;;
57893;SDS011;43710;47.460;19.034;2023-03-24T05:29:48;22.92;;;17.80;;
57893;SDS011;43710;47.460;19.034;2023-03-24T05:32:54;25.85;;;17.95;;
57893;SDS011;43710;47.460;19.034;2023-03-24T05:35:57;27.30;;;18.92;;
57893;SDS011;43710;47.460;19.034;2023-03-24T05:39:00;27.35;;;17.98;;
57893;SDS011;43710;47.460;19.034;2023-03-24T05:42:04;24.55;;;18.40;;
57893;SDS011;43710;47.460;19.034;2023-03-24T05:45:07;28.90;;;19.75;;
57893;SDS011;43710;47.460;19.034;2023-03-24T05:48:11;23.25;;;17.65;;
57893;SDS011;43710;47.460;19.034;2023-03-24T05:51:16;25.30;;;18.80;;
57893;SDS011;43710;47.460;19.034;2023-03-24T05:54:18;28.55;;;19.80;;
57893;SDS011;43710;47.460;19.034;2023-03-24T05:57:21;27.02;;;20.62;;
57893;SDS011;43710;47.460;19.034;2023-03-24T06:00:23;24.73;;;18.85;;
57893;SDS011;43710;47.460;19.034;2023-03-24T06:03:27;35.10;;;20.10;;
57893;SDS011;43710;47.460;19.034;2023-03-24T06:06:35;26.60;;;19.92;;
57893;SDS011;43710;47.460;19.034;2023-03-24T06:09:39;28.85;;;20.62;;
57893;SDS011;43710;47.460;19.034;2023-03-24T06:12:45;30.30;;;20.77;;
57893;SDS011;43710;47.460;19.034;2023-03-24T06:15:47;31.40;;;20.62;;
57893;SDS011;43710;47.460;19.034;2023-03-24T06:18:50;26.75;;;20.60;;
57893;SDS011;43710;47.460;19.034;2023-03-24T06:21:56;27.40;;;21.08;;
57893;SDS011;43710;47.460;19.034;2023-03-24T06:25:04;23.52;;;19.70;;
57893;SDS011;43710;47.460;19.034;2023-03-24T06:28:09;25.75;;;20.00;;
57893;SDS011;43710;47.460;19.034;2023-03-24T06:31:13;26.47;;;20.17;;
57893;SDS011;43710;47.460;19.034;2023-03-24T06:34:16;26.23;;;19.67;;
57893;SDS011;43710;47.460;19.034;2023-03-24T06:37:21;32.33;;;18.92;;
57893;SDS011;43710;47.460;19.034;2023-03-24T06:40:24;26.12;;;18.80;;
57893;SDS011;43710;47.460;19.034;2023-03-24T06:43:27;25.90;;;19.12;;
57893;SDS011;43710;47.460;19.034;2023-03-24T06:46:31;36.90;;;19.83;;
57893;SDS011;43710;47.460;19.034;2023-03-24T06:49:33;30.92;;;18.92;;
57893;SDS011;43710;47.460;19.034;2023-03-24T06:52:38;28.17;;;19.85;;
57893;SDS011;43710;47.460;19.034;2023-03-24T06:55:40;25.20;;;19.40;;
57893;SDS011;43710;47.460;19.034;2023-03-24T06:58:43;27.85;;;18.85;;
57893;SDS011;43710;47.460;19.034;2023-03-24T07:01:47;25.92;;;19.50;;
57893;SDS011;43710;47.460;19.034;2023-03-24T07:04:51;32.88;;;20.85;;
57893;SDS011;43710;47.460;19.034;2023-03-24T07:07:56;23.08;;;19.25;;
57893;SDS011;43710;47.460;19.034;2023-03-24T07:11:03;36.67;;;19.50;;
57893;SDS011;43710;47.460;19.034;2023-03-24T07:14:06;26.98;;;19.10;;
57893;SDS011;43710;47.460;19.034;2023-03-24T07:17:08;29.15;;;19.87;;
57893;SDS011;43710;47.460;19.034;2023-03-24T07:20:11;25.30;;;19.87;;
57893;SDS011;43710;47.460;19.034;2023-03-24T07:23:17;33.63;;;20.45;;
57893;SDS011;43710;47.460;19.034;2023-03-24T07:26:20;24.50;;;19.65;;
57893;SDS011;43710;47.460;19.034;2023-03-24T07:29:24;25.75;;;19.58;;
57893;SDS011;43710;47.460;19.034;2023-03-24T07:32:30;21.37;;;19.08;;
57893;SDS011;43710;47.460;19.034;2023-03-24T07:35:36;28.73;;;19.75;;
57893;SDS011;43710;47.460;19.034;2023-03-24T07:38:39;25.92;;;19.52;;
57893;SDS011;43710;47.460;19.034;2023-03-24T07:41:42;28.08;;;19.08;;
57893;SDS011;43710;47.460;19.034;2023-03-24T07:44:45;27.73;;;19.92;;
57893;SDS011;43710;47.460;19.034;2023-03-24T07:47:47;28.02;;;21.17;;
57893;SDS011;43710;47.460;19.034;2023-03-24T07:50:51;28.83;;;20.52;;
57893;SDS011;43710;47.460;19.034;2023-03-24T07:53:55;23.05;;;18.35;;
57893;SDS011;43710;47.460;19.034;2023-03-24T07:56:58;25.98;;;19.70;;
57893;SDS011;43710;47.460;19.034;2023-03-24T08:00:00;25.02;;;19.52;;
57893;SDS011;43710;47.460;19.034;2023-03-24T08:03:16;32.20;;;18.33;;
57893;SDS011;43710;47.460;19.034;2023-03-24T08:06:19;24.05;;;17.50;;
57893;SDS011;43710;47.460;19.034;2023-03-24T08:09:23;18.25;;;16.30;;
57893;SDS011;43710;47.460;19.034;2023-03-24T08:12:26;22.50;;;17.95;;
57893;SDS011;43710;47.460;19.034;2023-03-24T08:15:29;18.42;;;16.27;;
57893;SDS011;43710;47.460;19.034;2023-03-24T08:18:32;23.98;;;18.00;;
57893;SDS011;43710;47.460;19.034;2023-03-24T08:21:36;21.92;;;17.05;;
57893;SDS011;43710;47.460;19.034;2023-03-24T08:24:38;25.95;;;18.95;;
57893;SDS011;43710;47.460;19.034;2023-03-24T08:27:40;22.00;;;17.58;;
57893;SDS011;43710;47.460;19.034;2023-03-24T08:30:45;31.77;;;18.42;;
57893;SDS011;43710;47.460;19.034;2023-03-24T08:33:48;25.45;;;19.27;;
57893;SDS011;43710;47.460;19.034;2023-03-24T08:36:50;22.13;;;14.85;;
57893;SDS011;43710;47.460;19.034;2023-03-24T08:39:53;22.42;;;16.15;;
57893;SDS011;43710;47.460;19.034;2023-03-24T08:43:00;20.37;;;15.20;;
57893;SDS011;43710;47.460;19.034;2023-03-24T08:46:06;19.02;;;15.05;;
57893;SDS011;43710;47.460;19.034;2023-03-24T08:49:11;16.73;;;14.20;;
57893;SDS011;43710;47.460;19.034;2023-03-24T08:52:13;18.85;;;14.23;;
57893;SDS011;43710;47.460;19.034;2023-03-24T08:55:18;19.30;;;13.32;;
57893;SDS011;43710;47.460;19.034;2023-03-24T08:58:21;14.35;;;12.10;;
57893;SDS011;43710;47.460;19.034;2023-03-24T09:01:24;15.00;;;11.90;;
57893;SDS011;43710;47.460;19.034;2023-03-24T09:04:26;16.15;;;11.55;;
57893;SDS011;43710;47.460;19.034;2023-03-24T09:07:29;16.92;;;11.82;;
57893;SDS011;43710;47.460;19.034;2023-03-24T09:10:31;13.93;;;12.02;;
57893;SDS011;43710;47.460;19.034;2023-03-24T09:13:33;15.57;;;11.60;;
57893;SDS011;43710;47.460;19.034;2023-03-24T09:16:36;14.07;;;10.68;;
57893;SDS011;43710;47.460;19.034;2023-03-24T09:19:38;13.32;;;10.77;;
57893;SDS011;43710;47.460;19.034;2023-03-24T09:22:42;13.52;;;10.40;;
57893;SDS011;43710;47.460;19.034;2023-03-24T09:25:48;13.52;;;11.15;;
57893;SDS011;43710;47.460;19.034;2023-03-24T09:28:51;13.95;;;11.23;;
57893;SDS011;43710;47.460;19.034;2023-03-24T09:31:54;18.70;;;11.48;;
57893;SDS011;43710;47.460;19.034;2023-03-24T09:34:58;16.48;;;11.10;;
57893;SDS011;43710;47.460;19.034;2023-03-24T09:38:01;23.38;;;12.15;;
57893;SDS011;43710;47.460;19.034;2023-03-24T09:41:10;15.60;;;11.57;;
57893;SDS011;43710;47.460;19.034;2023-03-24T09:44:32;17.05;;;12.98;;
57893;SDS011;43710;47.460;19.034;2023-03-24T09:47:38;15.38;;;12.13;;
57893;SDS011;43710;47.460;19.034;2023-03-24T10:00:14;25.80;;;13.13;;
57893;SDS011;43710;47.460;19.034;2023-03-24T10:03:22;19.05;;;12.52;;
57893;SDS011;43710;47.460;19.034;2023-03-24T10:06:26;20.33;;;12.63;;
57893;SDS011;43710;47.460;19.034;2023-03-24T10:09:32;16.37;;;12.07;;
57893;SDS011;43710;47.460;19.034;2023-03-24T10:12:37;16.00;;;12.43;;
57893;SDS011;43710;47.460;19.034;2023-03-24T10:15:43;26.50;;;12.15;;
57893;SDS011;43710;47.460;19.034;2023-03-24T10:19:21;26.02;;;12.95;;
57893;SDS011;43710;47.460;19.034;2023-03-24T10:22:56;14.63;;;11.75;;
57893;SDS011;43710;47.460;19.034;2023-03-24T10:29:53;16.27;;;11.18;;
57893;SDS011;43710;47.460;19.034;2023-03-24T10:33:04;14.20;;;10.98;;
57893;SDS011;43710;47.460;19.034;2023-03-24T10:36:08;24.17;;;10.50;;
57893;SDS011;43710;47.460;19.034;2023-03-24T10:39:15;20.27;;;7.40;;
57893;SDS011;43710;47.460;19.034;2023-03-24T10:42:27;12.75;;;6.65;;
57893;SDS011;43710;47.460;19.034;2023-03-24T10:45:34;15.45;;;6.75;;
57893;SDS011;43710;47.460;19.034;2023-03-24T10:51:45;16.58;;;6.87;;
57893;SDS011;43710;47.460;19.034;2023-03-24T10:54:55;12.07;;;6.65;;
57893;SDS011;43710;47.460;19.034;2023-03-24T10:57:59;12.40;;;6.57;;
57893;SDS011;43710;47.460;19.034;2023-03-24T11:01:02;11.10;;;6.18;;
57893;SDS011;43710;47.460;19.034;2023-03-24T11:04:23;11.15;;;6.32;;
57893;SDS011;43710;47.460;19.034;2023-03-24T11:07:28;10.15;;;6.18;;
57893;SDS011;43710;47.460;19.034;2023-03-24T11:10:39;10.13;;;5.68;;
57893;SDS011;43710;47.460;19.034;2023-03-24T11:13:42;16.25;;;6.25;;
57893;SDS011;43710;47.460;19.034;2023-03-24T11:17:09;11.27;;;5.68;;
57893;SDS011;43710;47.460;19.034;2023-03-24T11:26:43;15.02;;;5.57;;
57893;SDS011;43710;47.460;19.034;2023-03-24T11:29:51;14.35;;;5.87;;
57893;SDS011;43710;47.460;19.034;2023-03-24T11:32:55;15.10;;;5.87;;
57893;SDS011;43710;47.460;19.034;2023-03-24T11:36:05;13.62;;;5.93;;
57893;SDS011;43710;47.460;19.034;2023-03-24T11:43:21;8.13;;;4.62;;
57893;SDS011;43710;47.460;19.034;2023-03-24T11:46:23;12.07;;;5.22;;
57893;SDS011;43710;47.460;19.034;2023-03-24T11:49:31;6.72;;;4.47;;
57893;SDS011;43710;47.460;19.034;2023-03-24T11:59:12;5.55;;;3.65;;
57893;SDS011;43710;47.460;19.034;2023-03-24T12:02:42;7.60;;;3.45;;
57893;SDS011;43710;47.460;19.034;2023-03-24T12:06:14;10.43;;;3.87;;
57893;SDS011;43710;47.460;19.034;2023-03-24T12:09:40;5.68;;;2.75;;
57893;SDS011;43710;47.460;19.034;2023-03-24T12:36:22;4.15;;;2.60;;
57893;SDS011;43710;47.460;19.034;2023-03-24T12:39:11;4.87;;;2.80;;
57893;SDS011;43710;47.460;19.034;2023-03-24T12:42:18;4.78;;;2.45;;
57893;SDS011;43710;47.460;19.034;2023-03-24T12:45:25;5.22;;;2.47;;
57893;SDS011;43710;47.460;19.034;2023-03-24T12:52:02;3.83;;;2.42;;
57893;SDS011;43710;47.460;19.034;2023-03-24T12:55:28;5.50;;;2.55;;
57893;SDS011;43710;47.460;19.034;2023-03-24T12:58:44;7.55;;;3.08;;
57893;SDS011;43710;47.460;19.034;2023-03-24T13:02:46;7.72;;;2.92;;
57893;SDS011;43710;47.460;19.034;2023-03-24T13:05:35;2.83;;;2.40;;
57893;SDS011;43710;47.460;19.034;2023-03-24T13:08:47;5.57;;;2.72;;
57893;SDS011;43710;47.460;19.034;2023-03-24T13:12:02;4.55;;;2.70;;
57893;SDS011;43710;47.460;19.034;2023-03-24T13:18:17;4.25;;;2.58;;
57893;SDS011;43710;47.460;19.034;2023-03-24T13:21:39;5.53;;;2.60;;
57893;SDS011;43710;47.460;19.034;2023-03-24T13:24:43;4.40;;;2.80;;
57893;SDS011;43710;47.460;19.034;2023-03-24T13:27:47;4.55;;;2.90;;
57893;SDS011;43710;47.460;19.034;2023-03-24T13:30:56;6.22;;;2.97;;
57893;SDS011;43710;47.460;19.034;2023-03-24T13:34:01;3.70;;;2.70;;
57893;SDS011;43710;47.460;19.034;2023-03-24T13:37:11;17.45;;;3.85;;
57893;SDS011;43710;47.460;19.034;2023-03-24T13:40:20;5.72;;;2.85;;
57893;SDS011;43710;47.460;19.034;2023-03-24T13:43:29;5.97;;;2.83;;
57893;SDS011;43710;47.460;19.034;2023-03-24T13:46:35;6.50;;;2.62;;
57893;SDS011;43710;47.460;19.034;2023-03-24T13:49:40;5.37;;;2.53;;
57893;SDS011;43710;47.460;19.034;2023-03-24T13:52:46;4.20;;;2.75;;
57893;SDS011;43710;47.460;19.034;2023-03-24T13:55:50;4.97;;;2.67;;
57893;SDS011;43710;47.460;19.034;2023-03-24T14:02:19;8.15;;;2.72;;
57893;SDS011;43710;47.460;19.034;2023-03-24T14:09:19;5.93;;;2.42;;
57893;SDS011;43710;47.460;19.034;2023-03-24T14:12:07;4.13;;;2.90;;
57893;SDS011;43710;47.460;19.034;2023-03-24T14:15:30;6.18;;;2.62;;
57893;SDS011;43710;47.460;19.034;2023-03-24T14:21:39;11.12;;;2.80;;
57893;SDS011;43710;47.460;19.034;2023-03-24T14:24:44;22.52;;;3.50;;
57893;SDS011;43710;47.460;19.034;2023-03-24T14:28:05;7.30;;;3.17;;
57893;SDS011;43710;47.460;19.034;2023-03-24T14:34:19;5.65;;;2.72;;
57893;SDS011;43710;47.460;19.034;2023-03-24T14:37:26;4.80;;;3.00;;
57893;SDS011;43710;47.460;19.034;2023-03-24T14:40:37;5.47;;;2.80;;
57893;SDS011;43710;47.460;19.034;2023-03-24T14:46:47;3.47;;;2.92;;
57893;SDS011;43710;47.460;19.034;2023-03-24T14:49:52;4.55;;;2.62;;
57893;SDS011;43710;47.460;19.034;2023-03-24T14:52:59;6.37;;;3.10;;
57893;SDS011;43710;47.460;19.034;2023-03-24T14:56:10;5.62;;;3.10;;
57893;SDS011;43710;47.460;19.034;2023-03-24T14:59:28;7.03;;;2.97;;
57893;SDS011;43710;47.460;19.034;2023-03-24T15:02:51;6.20;;;3.08;;
57893;SDS011;43710;47.460;19.034;2023-03-24T15:09:30;6.25;;;2.83;;
57893;SDS011;43710;47.460;19.034;2023-03-24T15:12:37;6.57;;;3.25;;
57893;SDS011;43710;47.460;19.034;2023-03-24T15:15:45;6.62;;;2.78;;
57893;SDS011;43710;47.460;19.034;2023-03-24T15:19:05;4.15;;;2.90;;
57893;SDS011;43710;47.460;19.034;2023-03-24T15:22:11;4.45;;;3.10;;
57893;SDS011;43710;47.460;19.034;2023-03-24T15:25:14;16.05;;;2.80;;
57893;SDS011;43710;47.460;19.034;2023-03-24T15:28:18;8.25;;;3.10;;
57893;SDS011;43710;47.460;19.034;2023-03-24T15:37:34;5.93;;;2.90;;
57893;SDS011;43710;47.460;19.034;2023-03-24T15:40:50;7.60;;;2.90;;
57893;SDS011;43710;47.460;19.034;2023-03-24T15:43:56;6.62;;;3.00;;
57893;SDS011;43710;47.460;19.034;2023-03-24T15:46:59;10.93;;;3.55;;
57893;SDS011;43710;47.460;19.034;2023-03-24T15:50:04;7.82;;;2.85;;
57893;SDS011;43710;47.460;19.034;2023-03-24T15:56:19;8.70;;;3.17;;
57893;SDS011;43710;47.460;19.034;2023-03-24T15:59:35;5.30;;;3.25;;
57893;SDS011;43710;47.460;19.034;2023-03-24T16:02:39;6.22;;;3.05;;
57893;SDS011;43710;47.460;19.034;2023-03-24T16:05:45;4.55;;;2.87;;
57893;SDS011;43710;47.460;19.034;2023-03-24T16:08:49;7.95;;;3.58;;
57893;SDS011;43710;47.460;19.034;2023-03-24T16:11:51;6.65;;;3.33;;
57893;SDS011;43710;47.460;19.034;2023-03-24T16:14:54;4.97;;;3.25;;
57893;SDS011;43710;47.460;19.034;2023-03-24T16:17:56;4.75;;;3.25;;
57893;SDS011;43710;47.460;19.034;2023-03-24T16:20:59;4.55;;;3.33;;
57893;SDS011;43710;47.460;19.034;2023-03-24T16:24:03;6.03;;;3.12;;
57893;SDS011;43710;47.460;19.034;2023-03-24T16:27:05;4.45;;;3.12;;
57893;SDS011;43710;47.460;19.034;2023-03-24T16:30:16;7.37;;;3.33;;
57893;SDS011;43710;47.460;19.034;2023-03-24T16:33:22;4.40;;;3.25;;
